This is the latest recevied weather packets stored in our database for station/object CE3JSG-13. If no packets are shown the sender has not sent any weather packets the latest 10 day(s).
| Time | Temp. | Humidity | Pressure | Rain* | Wind** | Luminosity | Snow |
|---|---|---|---|---|---|---|---|
| 1777520716 | 16.67° C | 64% | 1012.2 hPa | - | - | - | - |
| 1777520295 | 17.22° C | 64% | 1011.3 hPa | - | - | - | - |
| 1777519875 | 17.22° C | 65% | 1012.1 hPa | - | - | - | - |
| 1777519456 | 17.22° C | 64% | 1012 hPa | - | - | - | - |
| 1777519035 | 17.78° C | 64% | 1011.9 hPa | - | - | - | - |
| 1777518615 | 17.78° C | 64% | 1011.7 hPa | - | - | - | - |
| 1777518196 | 18.33° C | 63% | 1011.7 hPa | - | - | - | - |
| 1777517775 | 18.33° C | 62% | 1011.3 hPa | - | - | - | - |
| 1777517355 | 18.33° C | 62% | 1011.3 hPa | - | - | - | - |
| 1777516935 | 18.33° C | 62% | 1011.2 hPa | - | - | - | - |
| 1777516515 | 17.78° C | 62% | 1011.7 hPa | - | - | - | - |
| 1777516095 | 17.78° C | 61% | 1011.7 hPa | - | - | - | - |
| 1777515676 | 17.78° C | 61% | 1012.5 hPa | - | - | - | - |
| 1777515255 | 18.33° C | 62% | 1011.5 hPa | - | - | - | - |
| 1777514835 | 18.33° C | 59% | 1012.2 hPa | - | - | - | - |
| 1777514415 | 18.33° C | 57% | 1012.5 hPa | - | - | - | - |
| 1777513995 | 18.89° C | 57% | 1011.7 hPa | - | - | - | - |
| 1777513575 | 19.44° C | 57% | 1011 hPa | - | - | - | - |
| 1777513155 | 19.44° C | 58% | 1011.8 hPa | - | - | - | - |
| 1777512735 | 19.44° C | 57% | 1011.8 hPa | - | - | - | - |
| 1777512316 | 19.44° C | 56% | 1011.2 hPa | - | - | - | - |
| 1777511895 | 19.44° C | 57% | 1011.1 hPa | - | - | - | - |
| 1777511475 | 19.44° C | 58% | 1011.7 hPa | - | - | - | - |
| 1777511055 | 20° C | 57% | 1011.6 hPa | - | - | - | - |
| 1777510635 | 20° C | 56% | 1011.9 hPa | - | - | - | - |
* Rain since midnight (hover to see other rain measurements)
** Current wind speed in m/s (hover to see current wind gust speed)